Share

Basin, WY

7:55 AM MDT on April 24, 2014 (GMT -0600)
West Basin (KWYBASIN1) Elev 3873 ft | 44.38 °N, 108.05 °W | Change Station

Current weather conditions updated 1 minute ago

Clear
Clear
42.1 °F
Feels Like 42 °F
N
0.0
Wind Variable Wind from NE
Gusts 3.0 mph
Sunrise 6:13 AM
Sunset 8:07 PM
Moon Waning Crescent

Today is forecast to be Warmer than yesterday.

Pressure 29.93 in
Visibility 10.0 miles
Clouds Clear
Windchill 42 °F
Dew Point 20 °F
Humidity 41%
Rainfall 0.00 in
Snow Depth Not available.
UV 0 out of 16
Pollen 10.40 out of 12
Air Quality Not available.
Flu Activity Sporadic
METAR KGEY 241253Z AUTO 00000KT 10SM CLR 01/M06 A2991 RMK AO2 SLP135 T00061061

More Conditions Fewer Conditions

Pressure 29.93 in
Visibility 10.0 miles
Clouds Clear
Windchill 42 °F
Dew Point 20 °F
Humidity 41%
Rainfall 0.00 in
Snow Depth Not available.
UV 0 out of 16
Pollen 10.40 out of 12
Air Quality Not available.
Flu Activity Sporadic
METAR KGEY 241253Z AUTO 00000KT 10SM CLR 01/M06 A2991 RMK AO2 SLP135 T00061061

More Conditions Fewer Conditions

10-Day Weather Forecast

Almanac

Astronomy

Apr. 24, 2014 Rise Set
Actual Time 6:13 AM MDT 8:07 PM MDT
Civil Twilight 5:42 AM MDT 8:39 PM MDT
Nautical Twilight 5:04 AM MDT 9:17 PM MDT
Astronomical Twilight 4:22 AM MDT 9:59 PM MDT
Moon 3:38 AM MDT 3:16 PM MDT
Length of Visible Light 14h 56m
Length of Day
13h 54m
Tomorrow will be 2m 48s longer.
Waning Crescent, 25% of the Moon is Illuminated
Today
Waning Crescent
Apr 29
New
May 6
First Quarter
May 14
Full
May 21
Last Quarter

Today's Extremes

State Highs State Lows

Community

  • Stacked
    Stacked
  • clouds approaching Red Sox Nation
    clouds approaching Red Sox Nation
  • Balance
    Balance
  • Citysky
    Citysky
  • Nestled In
    Nestled In

WunderPhotos

Upload Photos

1,704,607 photos uploaded!

Nearby

Snow Depth

Station Depth Elevation
Sylvan Lake 63 in 8420 ft
Togwotee Pass 89 in 7980 ft
Gunsight Pass 49 in 9820 ft
Townsend Creek 20 in 8700 ft
Thumb Divide 50 in 7980 ft

Coastal Water Temperatures

Place Temperature
No Stations Reporting

Earthquake Activity

City Distance Mag. Time & Date
No recent earthquake activity has been reported nearby.
Minimum magnitude displayed is 2.5.

Nearby Weather Stations

Station Location Temp. Windchill Dew Point Humidity Wind Precip. Elev Updated Type
West Basin, BASIN, WY 42.1 °F 42 °F 20 °F 41% NE  at  0.0 mph 0.00 in / hr 3873 ft 7:53 AM MDT Normal
Basin, WY 39.9 °F 40 °F 22 °F 49% ENE  at  1.0 mph 0.00 in / hr 4537 ft 7:48 AM MDT Normal

Show More Stations Show Fewer Stations

What do you think?

We're not finished. Please let us know what you like, what you don't like, and what you are still missing.